sensor_id;sensor_type;location;lat;lon;timestamp;temperature;humidity
49238;DHT22;35069;47.906;1.892;2024-03-23T00:53:50;10.90;99.90
49238;DHT22;35069;47.906;1.892;2024-03-23T00:56:16;10.90;99.90
49238;DHT22;35069;47.906;1.892;2024-03-23T00:58:41;11.00;99.90
49238;DHT22;35069;47.906;1.892;2024-03-23T01:01:07;10.80;99.90
49238;DHT22;35069;47.906;1.892;2024-03-23T01:03:32;10.50;99.90
49238;DHT22;35069;47.906;1.892;2024-03-23T01:06:01;10.40;99.90
49238;DHT22;35069;47.906;1.892;2024-03-23T01:08:27;10.40;99.90
49238;DHT22;35069;47.906;1.892;2024-03-23T01:10:56;10.30;99.90
49238;DHT22;35069;47.906;1.892;2024-03-23T01:13:22;10.30;99.90
49238;DHT22;35069;47.906;1.892;2024-03-23T01:15:51;10.30;99.90
49238;DHT22;35069;47.906;1.892;2024-03-23T01:18:17;10.20;99.90
49238;DHT22;35069;47.906;1.892;2024-03-23T01:20:43;10.10;99.90
49238;DHT22;35069;47.906;1.892;2024-03-23T01:23:08;10.00;99.90
49238;DHT22;35069;47.906;1.892;2024-03-23T01:25:34;10.00;99.90
49238;DHT22;35069;47.906;1.892;2024-03-23T01:27:59;10.00;99.90
49238;DHT22;35069;47.906;1.892;2024-03-23T01:30:25;10.00;99.90
49238;DHT22;35069;47.906;1.892;2024-03-23T01:32:50;10.00;99.90
49238;DHT22;35069;47.906;1.892;2024-03-23T01:35:16;9.90;99.90
49238;DHT22;35069;47.906;1.892;2024-03-23T01:37:41;9.90;99.90
49238;DHT22;35069;47.906;1.892;2024-03-23T01:40:07;10.00;99.90
49238;DHT22;35069;47.906;1.892;2024-03-23T01:42:33;10.00;99.90
49238;DHT22;35069;47.906;1.892;2024-03-23T01:44:58;10.10;99.90
49238;DHT22;35069;47.906;1.892;2024-03-23T01:47:23;9.90;99.90
49238;DHT22;35069;47.906;1.892;2024-03-23T01:49:49;9.90;99.90
49238;DHT22;35069;47.906;1.892;2024-03-23T01:52:14;9.90;99.90
49238;DHT22;35069;47.906;1.892;2024-03-23T01:54:40;9.80;99.90
49238;DHT22;35069;47.906;1.892;2024-03-23T01:57:06;9.70;99.90
49238;DHT22;35069;47.906;1.892;2024-03-23T01:59:32;9.70;99.90
49238;DHT22;35069;47.906;1.892;2024-03-23T02:01:57;9.70;99.90
49238;DHT22;35069;47.906;1.892;2024-03-23T02:04:23;9.60;99.90
49238;DHT22;35069;47.906;1.892;2024-03-23T02:06:48;9.60;99.90
49238;DHT22;35069;47.906;1.892;2024-03-23T02:09:14;9.60;99.90
49238;DHT22;35069;47.906;1.892;2024-03-23T02:11:40;9.50;99.90
49238;DHT22;35069;47.906;1.892;2024-03-23T02:14:06;9.50;99.90
49238;DHT22;35069;47.906;1.892;2024-03-23T02:16:33;9.40;99.90
49238;DHT22;35069;47.906;1.892;2024-03-23T02:18:58;9.30;99.90
49238;DHT22;35069;47.906;1.892;2024-03-23T02:21:24;9.30;99.90
49238;DHT22;35069;47.906;1.892;2024-03-23T02:23:49;9.30;99.90
49238;DHT22;35069;47.906;1.892;2024-03-23T02:26:15;9.20;99.90
49238;DHT22;35069;47.906;1.892;2024-03-23T02:28:42;9.20;99.90
49238;DHT22;35069;47.906;1.892;2024-03-23T02:31:07;9.20;99.90
49238;DHT22;35069;47.906;1.892;2024-03-23T02:33:33;9.10;99.90
49238;DHT22;35069;47.906;1.892;2024-03-23T02:35:59;9.10;99.90
49238;DHT22;35069;47.906;1.892;2024-03-23T02:38:25;9.00;99.90
49238;DHT22;35069;47.906;1.892;2024-03-23T02:40:50;9.00;99.90
49238;DHT22;35069;47.906;1.892;2024-03-23T02:43:16;9.00;99.90
49238;DHT22;35069;47.906;1.892;2024-03-23T02:45:41;9.00;99.90
49238;DHT22;35069;47.906;1.892;2024-03-23T02:48:07;8.90;99.90
49238;DHT22;35069;47.906;1.892;2024-03-23T02:50:33;8.80;99.90
49238;DHT22;35069;47.906;1.892;2024-03-23T02:52:58;8.80;99.90
49238;DHT22;35069;47.906;1.892;2024-03-23T02:55:24;8.80;99.90
49238;DHT22;35069;47.906;1.892;2024-03-23T02:57:49;8.70;99.90
49238;DHT22;35069;47.906;1.892;2024-03-23T03:00:15;8.70;99.90
49238;DHT22;35069;47.906;1.892;2024-03-23T03:02:41;8.70;99.90
49238;DHT22;35069;47.906;1.892;2024-03-23T03:05:06;8.80;99.90
49238;DHT22;35069;47.906;1.892;2024-03-23T03:07:34;8.70;99.90
49238;DHT22;35069;47.906;1.892;2024-03-23T03:09:59;8.60;99.90
49238;DHT22;35069;47.906;1.892;2024-03-23T03:12:25;8.60;99.90
49238;DHT22;35069;47.906;1.892;2024-03-23T03:14:50;8.60;99.90
49238;DHT22;35069;47.906;1.892;2024-03-23T03:17:16;8.60;99.90
49238;DHT22;35069;47.906;1.892;2024-03-23T03:19:41;8.60;99.90
49238;DHT22;35069;47.906;1.892;2024-03-23T03:22:07;8.60;99.90
49238;DHT22;35069;47.906;1.892;2024-03-23T03:24:32;8.50;99.90
49238;DHT22;35069;47.906;1.892;2024-03-23T03:26:58;8.40;99.90
49238;DHT22;35069;47.906;1.892;2024-03-23T03:29:23;8.40;99.90
49238;DHT22;35069;47.906;1.892;2024-03-23T03:31:49;8.40;99.90
49238;DHT22;35069;47.906;1.892;2024-03-23T03:34:15;8.40;99.90
49238;DHT22;35069;47.906;1.892;2024-03-23T03:36:41;8.30;99.90
49238;DHT22;35069;47.906;1.892;2024-03-23T03:39:06;8.20;99.90
49238;DHT22;35069;47.906;1.892;2024-03-23T03:41:32;8.20;99.90
49238;DHT22;35069;47.906;1.892;2024-03-23T03:43:58;8.20;99.90
49238;DHT22;35069;47.906;1.892;2024-03-23T03:46:27;8.20;99.90
49238;DHT22;35069;47.906;1.892;2024-03-23T03:48:54;8.10;99.90
49238;DHT22;35069;47.906;1.892;2024-03-23T03:51:19;8.10;99.90
49238;DHT22;35069;47.906;1.892;2024-03-23T03:53:45;8.10;99.90
49238;DHT22;35069;47.906;1.892;2024-03-23T03:56:10;8.10;99.90
49238;DHT22;35069;47.906;1.892;2024-03-23T03:58:36;8.10;99.90
49238;DHT22;35069;47.906;1.892;2024-03-23T04:01:01;8.00;99.90
49238;DHT22;35069;47.906;1.892;2024-03-23T04:03:27;8.00;99.90
49238;DHT22;35069;47.906;1.892;2024-03-23T04:05:53;8.00;99.90
49238;DHT22;35069;47.906;1.892;2024-03-23T04:08:19;7.90;99.90
49238;DHT22;35069;47.906;1.892;2024-03-23T04:10:44;8.00;99.90
49238;DHT22;35069;47.906;1.892;2024-03-23T04:13:11;7.90;99.90
49238;DHT22;35069;47.906;1.892;2024-03-23T04:15:37;7.80;99.90
49238;DHT22;35069;47.906;1.892;2024-03-23T04:18:02;7.80;99.90
49238;DHT22;35069;47.906;1.892;2024-03-23T04:20:28;7.80;99.90
49238;DHT22;35069;47.906;1.892;2024-03-23T04:22:53;7.90;99.90
49238;DHT22;35069;47.906;1.892;2024-03-23T04:25:19;7.80;99.90
49238;DHT22;35069;47.906;1.892;2024-03-23T04:27:45;7.80;99.90
49238;DHT22;35069;47.906;1.892;2024-03-23T04:30:11;7.80;99.90
49238;DHT22;35069;47.906;1.892;2024-03-23T04:32:37;7.80;99.90
49238;DHT22;35069;47.906;1.892;2024-03-23T04:35:03;7.70;99.90
49238;DHT22;35069;47.906;1.892;2024-03-23T04:37:33;7.70;99.90
49238;DHT22;35069;47.906;1.892;2024-03-23T04:39:59;7.70;99.90
49238;DHT22;35069;47.906;1.892;2024-03-23T04:42:25;7.70;99.90
49238;DHT22;35069;47.906;1.892;2024-03-23T04:44:51;7.70;99.90
49238;DHT22;35069;47.906;1.892;2024-03-23T04:47:16;7.70;99.90
49238;DHT22;35069;47.906;1.892;2024-03-23T04:49:42;7.60;99.90
49238;DHT22;35069;47.906;1.892;2024-03-23T04:52:07;7.60;99.90
49238;DHT22;35069;47.906;1.892;2024-03-23T04:54:33;7.50;99.90
49238;DHT22;35069;47.906;1.892;2024-03-23T04:56:58;7.50;99.90
49238;DHT22;35069;47.906;1.892;2024-03-23T04:59:24;7.50;99.90
49238;DHT22;35069;47.906;1.892;2024-03-23T05:01:50;7.50;99.90
49238;DHT22;35069;47.906;1.892;2024-03-23T05:04:15;7.50;99.90
49238;DHT22;35069;47.906;1.892;2024-03-23T05:06:41;7.50;99.90
49238;DHT22;35069;47.906;1.892;2024-03-23T05:09:06;7.40;99.90
49238;DHT22;35069;47.906;1.892;2024-03-23T05:11:33;7.30;99.90
49238;DHT22;35069;47.906;1.892;2024-03-23T05:13:59;7.30;99.90
49238;DHT22;35069;47.906;1.892;2024-03-23T05:16:24;7.30;99.90
49238;DHT22;35069;47.906;1.892;2024-03-23T05:18:50;7.20;99.90
49238;DHT22;35069;47.906;1.892;2024-03-23T05:21:15;7.30;99.90
49238;DHT22;35069;47.906;1.892;2024-03-23T05:23:41;7.30;99.90
49238;DHT22;35069;47.906;1.892;2024-03-23T05:26:08;7.20;99.90
49238;DHT22;35069;47.906;1.892;2024-03-23T05:28:34;7.20;99.90
49238;DHT22;35069;47.906;1.892;2024-03-23T05:31:00;7.20;99.90
49238;DHT22;35069;47.906;1.892;2024-03-23T05:33:25;7.10;99.90
49238;DHT22;35069;47.906;1.892;2024-03-23T05:35:58;7.20;99.90
49238;DHT22;35069;47.906;1.892;2024-03-23T05:38:23;7.10;99.90
49238;DHT22;35069;47.906;1.892;2024-03-23T05:40:58;7.10;99.90
49238;DHT22;35069;47.906;1.892;2024-03-23T05:43:24;7.10;99.90
49238;DHT22;35069;47.906;1.892;2024-03-23T05:45:56;7.10;99.90
49238;DHT22;35069;47.906;1.892;2024-03-23T05:48:21;7.10;99.90
49238;DHT22;35069;47.906;1.892;2024-03-23T05:50:47;7.20;99.90
49238;DHT22;35069;47.906;1.892;2024-03-23T05:53:14;7.20;99.90
49238;DHT22;35069;47.906;1.892;2024-03-23T05:55:40;7.20;99.90
49238;DHT22;35069;47.906;1.892;2024-03-23T05:58:05;7.10;99.90
49238;DHT22;35069;47.906;1.892;2024-03-23T06:00:30;7.10;99.90
49238;DHT22;35069;47.906;1.892;2024-03-23T06:02:56;7.10;99.90
49238;DHT22;35069;47.906;1.892;2024-03-23T06:05:22;7.20;99.90
49238;DHT22;35069;47.906;1.892;2024-03-23T06:07:49;7.10;99.90
49238;DHT22;35069;47.906;1.892;2024-03-23T06:10:15;7.10;99.90
49238;DHT22;35069;47.906;1.892;2024-03-23T06:12:41;7.20;99.90
49238;DHT22;35069;47.906;1.892;2024-03-23T06:15:06;7.50;99.90
49238;DHT22;35069;47.906;1.892;2024-03-23T06:17:38;7.80;99.90
49238;DHT22;35069;47.906;1.892;2024-03-23T06:20:04;8.10;99.90
49238;DHT22;35069;47.906;1.892;2024-03-23T06:22:31;8.40;99.90
49238;DHT22;35069;47.906;1.892;2024-03-23T06:24:57;8.70;99.90
49238;DHT22;35069;47.906;1.892;2024-03-23T06:27:22;8.90;99.90
49238;DHT22;35069;47.906;1.892;2024-03-23T06:29:48;9.20;99.90
49238;DHT22;35069;47.906;1.892;2024-03-23T06:32:13;9.30;99.90
49238;DHT22;35069;47.906;1.892;2024-03-23T06:34:41;9.60;99.90
49238;DHT22;35069;47.906;1.892;2024-03-23T06:37:06;9.90;99.90
49238;DHT22;35069;47.906;1.892;2024-03-23T06:39:32;10.00;99.90
49238;DHT22;35069;47.906;1.892;2024-03-23T06:41:58;10.20;99.90
49238;DHT22;35069;47.906;1.892;2024-03-23T06:44:23;10.40;99.90
49238;DHT22;35069;47.906;1.892;2024-03-23T06:46:49;10.50;99.90
49238;DHT22;35069;47.906;1.892;2024-03-23T06:49:15;10.20;99.90
49238;DHT22;35069;47.906;1.892;2024-03-23T06:51:41;10.30;99.90
49238;DHT22;35069;47.906;1.892;2024-03-23T06:54:06;10.60;99.90
49238;DHT22;35069;47.906;1.892;2024-03-23T06:56:32;10.80;99.90
49238;DHT22;35069;47.906;1.892;2024-03-23T06:58:58;11.20;99.90
49238;DHT22;35069;47.906;1.892;2024-03-23T07:01:23;11.60;99.90
49238;DHT22;35069;47.906;1.892;2024-03-23T07:03:49;11.90;99.90
49238;DHT22;35069;47.906;1.892;2024-03-23T07:06:14;12.00;98.80
49238;DHT22;35069;47.906;1.892;2024-03-23T07:08:40;12.20;99.90
49238;DHT22;35069;47.906;1.892;2024-03-23T07:11:06;12.30;99.30
49238;DHT22;35069;47.906;1.892;2024-03-23T07:13:31;12.60;99.90
49238;DHT22;35069;47.906;1.892;2024-03-23T07:15:57;12.90;99.50
49238;DHT22;35069;47.906;1.892;2024-03-23T07:18:23;13.20;99.90
49238;DHT22;35069;47.906;1.892;2024-03-23T07:20:55;13.50;98.30
49238;DHT22;35069;47.906;1.892;2024-03-23T07:23:21;13.60;96.50
49238;DHT22;35069;47.906;1.892;2024-03-23T07:25:57;13.90;97.20
49238;DHT22;35069;47.906;1.892;2024-03-23T07:28:22;14.00;97.30
49238;DHT22;35069;47.906;1.892;2024-03-23T07:30:48;14.00;95.90
49238;DHT22;35069;47.906;1.892;2024-03-23T07:33:13;14.10;96.30
49238;DHT22;35069;47.906;1.892;2024-03-23T07:35:39;14.00;97.30
49238;DHT22;35069;47.906;1.892;2024-03-23T07:38:04;14.00;97.60
49238;DHT22;35069;47.906;1.892;2024-03-23T07:40:30;13.60;96.60
49238;DHT22;35069;47.906;1.892;2024-03-23T07:42:56;13.40;95.80
49238;DHT22;35069;47.906;1.892;2024-03-23T07:45:22;13.30;96.50
49238;DHT22;35069;47.906;1.892;2024-03-23T07:47:47;13.10;97.00
49238;DHT22;35069;47.906;1.892;2024-03-23T07:50:12;13.40;96.60
49238;DHT22;35069;47.906;1.892;2024-03-23T07:52:38;14.20;95.30
49238;DHT22;35069;47.906;1.892;2024-03-23T07:55:04;14.20;95.00
49238;DHT22;35069;47.906;1.892;2024-03-23T07:57:29;15.20;94.50
49238;DHT22;35069;47.906;1.892;2024-03-23T07:59:55;15.90;95.50
49238;DHT22;35069;47.906;1.892;2024-03-23T08:02:20;16.60;92.20
49238;DHT22;35069;47.906;1.892;2024-03-23T08:04:46;17.10;91.60
49238;DHT22;35069;47.906;1.892;2024-03-23T08:07:11;16.80;91.00
49238;DHT22;35069;47.906;1.892;2024-03-23T08:09:37;16.20;92.90
49238;DHT22;35069;47.906;1.892;2024-03-23T08:12:02;16.50;93.40
49238;DHT22;35069;47.906;1.892;2024-03-23T08:14:28;16.70;91.50
49238;DHT22;35069;47.906;1.892;2024-03-23T08:16:54;17.50;91.50
49238;DHT22;35069;47.906;1.892;2024-03-23T08:19:20;17.50;87.50
49238;DHT22;35069;47.906;1.892;2024-03-23T08:21:45;17.60;88.80
49238;DHT22;35069;47.906;1.892;2024-03-23T08:24:11;17.70;88.60
49238;DHT22;35069;47.906;1.892;2024-03-23T08:26:36;17.00;92.30
49238;DHT22;35069;47.906;1.892;2024-03-23T08:29:03;16.80;89.50
49238;DHT22;35069;47.906;1.892;2024-03-23T08:31:28;17.90;88.10
49238;DHT22;35069;47.906;1.892;2024-03-23T08:33:54;18.50;86.60
49238;DHT22;35069;47.906;1.892;2024-03-23T08:36:19;17.70;88.40
49238;DHT22;35069;47.906;1.892;2024-03-23T08:38:45;18.20;86.70
49238;DHT22;35069;47.906;1.892;2024-03-23T08:41:11;18.70;84.40
49238;DHT22;35069;47.906;1.892;2024-03-23T08:43:37;19.00;85.60
49238;DHT22;35069;47.906;1.892;2024-03-23T08:46:06;18.10;81.10
49238;DHT22;35069;47.906;1.892;2024-03-23T08:48:32;18.60;82.30
49238;DHT22;35069;47.906;1.892;2024-03-23T08:51:05;19.00;81.10
49238;DHT22;35069;47.906;1.892;2024-03-23T08:53:31;18.30;79.60
49238;DHT22;35069;47.906;1.892;2024-03-23T08:55:57;18.60;84.70
49238;DHT22;35069;47.906;1.892;2024-03-23T08:58:23;18.80;77.50
49238;DHT22;35069;47.906;1.892;2024-03-23T09:00:50;19.50;76.30
49238;DHT22;35069;47.906;1.892;2024-03-23T09:03:15;19.50;75.20
49238;DHT22;35069;47.906;1.892;2024-03-23T09:05:41;20.40;80.80
49238;DHT22;35069;47.906;1.892;2024-03-23T09:08:07;20.60;72.80
49238;DHT22;35069;47.906;1.892;2024-03-23T09:10:39;19.10;74.30
49238;DHT22;35069;47.906;1.892;2024-03-23T09:13:05;18.00;79.60
49238;DHT22;35069;47.906;1.892;2024-03-23T09:15:32;18.70;75.90
49238;DHT22;35069;47.906;1.892;2024-03-23T09:18:01;18.90;77.60
49238;DHT22;35069;47.906;1.892;2024-03-23T09:20:26;18.60;80.50
49238;DHT22;35069;47.906;1.892;2024-03-23T09:22:52;18.80;76.50
49238;DHT22;35069;47.906;1.892;2024-03-23T09:25:20;18.60;73.00
49238;DHT22;35069;47.906;1.892;2024-03-23T09:27:46;18.70;76.60
49238;DHT22;35069;47.906;1.892;2024-03-23T09:30:12;18.50;74.40
49238;DHT22;35069;47.906;1.892;2024-03-23T09:32:38;18.70;76.70
49238;DHT22;35069;47.906;1.892;2024-03-23T09:35:04;18.30;75.50
49238;DHT22;35069;47.906;1.892;2024-03-23T09:37:29;17.20;76.50
49238;DHT22;35069;47.906;1.892;2024-03-23T09:39:55;16.30;78.40
49238;DHT22;35069;47.906;1.892;2024-03-23T09:42:20;15.90;80.90
49238;DHT22;35069;47.906;1.892;2024-03-23T09:44:46;16.50;77.90
49238;DHT22;35069;47.906;1.892;2024-03-23T09:47:12;17.20;78.80
49238;DHT22;35069;47.906;1.892;2024-03-23T09:49:38;17.00;76.70
49238;DHT22;35069;47.906;1.892;2024-03-23T09:52:05;18.80;75.00
49238;DHT22;35069;47.906;1.892;2024-03-23T09:54:31;19.50;77.10
49238;DHT22;35069;47.906;1.892;2024-03-23T09:56:58;20.20;75.40
49238;DHT22;35069;47.906;1.892;2024-03-23T09:59:23;21.10;69.20
49238;DHT22;35069;47.906;1.892;2024-03-23T10:01:52;22.70;65.90
49238;DHT22;35069;47.906;1.892;2024-03-23T10:07:11;23.10;60.40
49238;DHT22;35069;47.906;1.892;2024-03-23T10:09:37;23.60;64.80
49238;DHT22;35069;47.906;1.892;2024-03-23T10:12:09;24.20;57.50
49238;DHT22;35069;47.906;1.892;2024-03-23T10:14:35;24.20;58.10
49238;DHT22;35069;47.906;1.892;2024-03-23T10:19:56;20.70;59.50
49238;DHT22;35069;47.906;1.892;2024-03-23T10:22:22;21.70;60.00
49238;DHT22;35069;47.906;1.892;2024-03-23T10:24:48;21.40;58.40
49238;DHT22;35069;47.906;1.892;2024-03-23T10:27:18;19.70;58.60
49238;DHT22;35069;47.906;1.892;2024-03-23T10:29:47;19.20;63.70
49238;DHT22;35069;47.906;1.892;2024-03-23T10:32:13;19.70;62.60
49238;DHT22;35069;47.906;1.892;2024-03-23T10:34:39;21.10;59.60
49238;DHT22;35069;47.906;1.892;2024-03-23T10:37:05;20.80;59.50
49238;DHT22;35069;47.906;1.892;2024-03-23T10:39:34;19.80;58.20
49238;DHT22;35069;47.906;1.892;2024-03-23T10:42:02;19.60;60.30
49238;DHT22;35069;47.906;1.892;2024-03-23T10:44:27;19.00;61.10
49238;DHT22;35069;47.906;1.892;2024-03-23T10:46:54;18.60;59.90
49238;DHT22;35069;47.906;1.892;2024-03-23T10:49:25;18.80;60.80
49238;DHT22;35069;47.906;1.892;2024-03-23T10:51:52;18.60;61.20
49238;DHT22;35069;47.906;1.892;2024-03-23T10:54:18;21.40;58.40
49238;DHT22;35069;47.906;1.892;2024-03-23T10:56:44;19.60;57.10
49238;DHT22;35069;47.906;1.892;2024-03-23T10:59:10;18.30;60.30
49238;DHT22;35069;47.906;1.892;2024-03-23T11:01:35;18.80;61.10
49238;DHT22;35069;47.906;1.892;2024-03-23T11:04:37;18.60;60.50
49238;DHT22;35069;47.906;1.892;2024-03-23T11:09:49;18.70;58.80
49238;DHT22;35069;47.906;1.892;2024-03-23T11:15:21;17.20;61.10
49238;DHT22;35069;47.906;1.892;2024-03-23T11:18:02;18.90;61.10
49238;DHT22;35069;47.906;1.892;2024-03-23T11:20:31;22.90;56.60
49238;DHT22;35069;47.906;1.892;2024-03-23T11:22:56;21.30;53.50
49238;DHT22;35069;47.906;1.892;2024-03-23T11:25:22;20.80;56.20
49238;DHT22;35069;47.906;1.892;2024-03-23T11:27:54;24.40;53.50
49238;DHT22;35069;47.906;1.892;2024-03-23T11:30:23;24.40;51.30
49238;DHT22;35069;47.906;1.892;2024-03-23T11:32:53;22.90;50.40
49238;DHT22;35069;47.906;1.892;2024-03-23T11:35:32;20.30;52.20
49238;DHT22;35069;47.906;1.892;2024-03-23T11:38:04;18.90;55.20
49238;DHT22;35069;47.906;1.892;2024-03-23T11:40:30;17.80;56.70
49238;DHT22;35069;47.906;1.892;2024-03-23T11:42:58;17.00;58.50
49238;DHT22;35069;47.906;1.892;2024-03-23T11:45:23;16.00;59.80
49238;DHT22;35069;47.906;1.892;2024-03-23T11:48:00;15.10;62.50
49238;DHT22;35069;47.906;1.892;2024-03-23T11:50:26;14.60;64.00
49238;DHT22;35069;47.906;1.892;2024-03-23T11:52:51;14.30;67.60
49238;DHT22;35069;47.906;1.892;2024-03-23T11:55:17;14.80;67.90
49238;DHT22;35069;47.906;1.892;2024-03-23T11:57:43;17.00;66.60
49238;DHT22;35069;47.906;1.892;2024-03-23T12:00:23;19.20;62.00
49238;DHT22;35069;47.906;1.892;2024-03-23T12:02:49;19.60;58.90
49238;DHT22;35069;47.906;1.892;2024-03-23T12:05:17;18.50;60.40
49238;DHT22;35069;47.906;1.892;2024-03-23T12:07:43;17.80;62.10
49238;DHT22;35069;47.906;1.892;2024-03-23T12:10:08;17.30;62.20
49238;DHT22;35069;47.906;1.892;2024-03-23T12:12:34;17.70;60.80
49238;DHT22;35069;47.906;1.892;2024-03-23T12:17:28;18.70;60.20
49238;DHT22;35069;47.906;1.892;2024-03-23T12:19:54;19.30;57.40
49238;DHT22;35069;47.906;1.892;2024-03-23T12:22:22;18.30;57.20
49238;DHT22;35069;47.906;1.892;2024-03-23T12:24:48;17.40;58.10
49238;DHT22;35069;47.906;1.892;2024-03-23T12:27:13;16.10;60.20
49238;DHT22;35069;47.906;1.892;2024-03-23T12:29:40;15.70;62.90
49238;DHT22;35069;47.906;1.892;2024-03-23T12:32:06;15.00;63.00
49238;DHT22;35069;47.906;1.892;2024-03-23T12:34:32;14.50;68.50
49238;DHT22;35069;47.906;1.892;2024-03-23T12:36:58;14.20;73.70
49238;DHT22;35069;47.906;1.892;2024-03-23T12:39:23;13.80;76.20
49238;DHT22;35069;47.906;1.892;2024-03-23T12:41:49;13.70;75.80
49238;DHT22;35069;47.906;1.892;2024-03-23T12:44:14;13.40;78.10
49238;DHT22;35069;47.906;1.892;2024-03-23T12:46:41;13.20;80.80
49238;DHT22;35069;47.906;1.892;2024-03-23T12:49:06;13.30;82.60
49238;DHT22;35069;47.906;1.892;2024-03-23T12:51:32;13.20;81.20
49238;DHT22;35069;47.906;1.892;2024-03-23T12:53:58;13.20;79.80
49238;DHT22;35069;47.906;1.892;2024-03-23T12:56:23;13.20;78.10
49238;DHT22;35069;47.906;1.892;2024-03-23T12:58:49;13.10;77.10
49238;DHT22;35069;47.906;1.892;2024-03-23T13:01:19;13.10;79.30
49238;DHT22;35069;47.906;1.892;2024-03-23T13:03:48;13.20;77.70
49238;DHT22;35069;47.906;1.892;2024-03-23T13:06:14;13.20;78.60
49238;DHT22;35069;47.906;1.892;2024-03-23T13:08:39;13.20;78.90
49238;DHT22;35069;47.906;1.892;2024-03-23T13:11:08;13.10;78.30
49238;DHT22;35069;47.906;1.892;2024-03-23T13:13:36;13.10;75.60
49238;DHT22;35069;47.906;1.892;2024-03-23T13:16:01;13.00;76.90
49238;DHT22;35069;47.906;1.892;2024-03-23T13:18:28;13.00;76.60
49238;DHT22;35069;47.906;1.892;2024-03-23T13:20:54;12.80;81.00
49238;DHT22;35069;47.906;1.892;2024-03-23T13:23:19;12.70;82.80
49238;DHT22;35069;47.906;1.892;2024-03-23T13:25:52;12.70;84.20
49238;DHT22;35069;47.906;1.892;2024-03-23T13:28:18;13.00;83.30
49238;DHT22;35069;47.906;1.892;2024-03-23T13:30:53;13.30;84.40
49238;DHT22;35069;47.906;1.892;2024-03-23T13:33:19;13.40;84.10
49238;DHT22;35069;47.906;1.892;2024-03-23T13:38:16;13.40;80.30
49238;DHT22;35069;47.906;1.892;2024-03-23T13:40:58;13.30;80.20
49238;DHT22;35069;47.906;1.892;2024-03-23T13:43:24;13.20;79.10
49238;DHT22;35069;47.906;1.892;2024-03-23T13:45:53;13.10;78.50
49238;DHT22;35069;47.906;1.892;2024-03-23T13:48:19;12.90;77.90
49238;DHT22;35069;47.906;1.892;2024-03-23T13:50:45;12.60;76.70
49238;DHT22;35069;47.906;1.892;2024-03-23T13:53:14;12.60;77.00
49238;DHT22;35069;47.906;1.892;2024-03-23T13:55:48;12.70;77.00
49238;DHT22;35069;47.906;1.892;2024-03-23T13:58:14;12.90;77.00
49238;DHT22;35069;47.906;1.892;2024-03-23T14:00:39;13.10;77.40
49238;DHT22;35069;47.906;1.892;2024-03-23T14:03:05;13.30;78.30
49238;DHT22;35069;47.906;1.892;2024-03-23T14:05:31;13.30;79.00
49238;DHT22;35069;47.906;1.892;2024-03-23T14:07:56;13.20;79.70
49238;DHT22;35069;47.906;1.892;2024-03-23T14:10:21;13.10;81.40
49238;DHT22;35069;47.906;1.892;2024-03-23T14:12:47;13.00;82.00
49238;DHT22;35069;47.906;1.892;2024-03-23T14:15:12;12.90;82.90
49238;DHT22;35069;47.906;1.892;2024-03-23T14:17:38;12.80;81.60
49238;DHT22;35069;47.906;1.892;2024-03-23T14:20:04;12.90;82.40
49238;DHT22;35069;47.906;1.892;2024-03-23T14:22:30;12.80;82.40
49238;DHT22;35069;47.906;1.892;2024-03-23T14:24:56;12.50;83.70
49238;DHT22;35069;47.906;1.892;2024-03-23T14:27:21;12.60;84.70
49238;DHT22;35069;47.906;1.892;2024-03-23T14:29:48;12.60;85.10
49238;DHT22;35069;47.906;1.892;2024-03-23T14:32:14;12.80;84.50
49238;DHT22;35069;47.906;1.892;2024-03-23T14:34:40;12.80;83.40
49238;DHT22;35069;47.906;1.892;2024-03-23T14:37:06;12.80;83.20
49238;DHT22;35069;47.906;1.892;2024-03-23T14:39:32;12.80;84.00
49238;DHT22;35069;47.906;1.892;2024-03-23T14:42:02;12.70;84.30
49238;DHT22;35069;47.906;1.892;2024-03-23T14:44:28;12.60;84.80
49238;DHT22;35069;47.906;1.892;2024-03-23T14:46:54;12.60;83.00
49238;DHT22;35069;47.906;1.892;2024-03-23T14:49:20;12.30;82.20
49238;DHT22;35069;47.906;1.892;2024-03-23T14:51:46;12.20;83.60
49238;DHT22;35069;47.906;1.892;2024-03-23T14:54:12;12.20;84.50
49238;DHT22;35069;47.906;1.892;2024-03-23T14:56:38;12.40;85.00
49238;DHT22;35069;47.906;1.892;2024-03-23T14:59:04;12.30;84.20
49238;DHT22;35069;47.906;1.892;2024-03-23T15:01:29;12.30;84.30
49238;DHT22;35069;47.906;1.892;2024-03-23T15:03:55;12.30;84.30
49238;DHT22;35069;47.906;1.892;2024-03-23T15:06:20;12.30;84.10
49238;DHT22;35069;47.906;1.892;2024-03-23T15:08:45;12.30;84.50
49238;DHT22;35069;47.906;1.892;2024-03-23T15:11:11;12.20;84.10
49238;DHT22;35069;47.906;1.892;2024-03-23T15:13:37;12.20;83.50
49238;DHT22;35069;47.906;1.892;2024-03-23T15:16:03;12.00;83.50
49238;DHT22;35069;47.906;1.892;2024-03-23T15:18:29;11.90;84.40
49238;DHT22;35069;47.906;1.892;2024-03-23T15:20:55;11.80;84.70
49238;DHT22;35069;47.906;1.892;2024-03-23T15:23:21;11.80;84.80
49238;DHT22;35069;47.906;1.892;2024-03-23T15:25:56;11.90;84.20
49238;DHT22;35069;47.906;1.892;2024-03-23T15:28:25;12.00;84.40
49238;DHT22;35069;47.906;1.892;2024-03-23T15:31:06;12.10;84.10
49238;DHT22;35069;47.906;1.892;2024-03-23T15:33:32;12.30;82.00
49238;DHT22;35069;47.906;1.892;2024-03-23T15:36:03;12.50;82.70
49238;DHT22;35069;47.906;1.892;2024-03-23T15:38:30;12.40;81.80
49238;DHT22;35069;47.906;1.892;2024-03-23T15:40:56;12.40;81.60
49238;DHT22;35069;47.906;1.892;2024-03-23T15:43:22;12.40;81.50
49238;DHT22;35069;47.906;1.892;2024-03-23T15:45:56;12.40;81.10
49238;DHT22;35069;47.906;1.892;2024-03-23T15:48:22;12.20;81.60
49238;DHT22;35069;47.906;1.892;2024-03-23T15:50:51;12.20;82.10
49238;DHT22;35069;47.906;1.892;2024-03-23T15:53:18;12.20;82.40
49238;DHT22;35069;47.906;1.892;2024-03-23T15:55:44;12.20;83.10
49238;DHT22;35069;47.906;1.892;2024-03-23T15:58:09;12.40;82.90
49238;DHT22;35069;47.906;1.892;2024-03-23T16:00:35;12.50;82.80
49238;DHT22;35069;47.906;1.892;2024-03-23T16:03:00;12.60;81.90
49238;DHT22;35069;47.906;1.892;2024-03-23T16:05:26;12.50;82.20
49238;DHT22;35069;47.906;1.892;2024-03-23T16:07:53;12.60;82.60
49238;DHT22;35069;47.906;1.892;2024-03-23T16:10:18;12.50;82.20
49238;DHT22;35069;47.906;1.892;2024-03-23T16:12:44;12.30;82.10
49238;DHT22;35069;47.906;1.892;2024-03-23T16:15:09;12.20;82.30
49238;DHT22;35069;47.906;1.892;2024-03-23T16:17:35;12.20;82.30
49238;DHT22;35069;47.906;1.892;2024-03-23T16:20:02;12.10;82.90
49238;DHT22;35069;47.906;1.892;2024-03-23T16:22:27;12.00;82.40
49238;DHT22;35069;47.906;1.892;2024-03-23T16:24:52;11.90;82.80
49238;DHT22;35069;47.906;1.892;2024-03-23T16:27:18;12.00;83.20
49238;DHT22;35069;47.906;1.892;2024-03-23T16:29:44;11.90;83.50
49238;DHT22;35069;47.906;1.892;2024-03-23T16:32:09;11.90;83.40
49238;DHT22;35069;47.906;1.892;2024-03-23T16:34:35;11.90;84.10
49238;DHT22;35069;47.906;1.892;2024-03-23T16:37:01;12.10;83.50
49238;DHT22;35069;47.906;1.892;2024-03-23T16:39:28;12.00;82.80